Terminal Aerodrome Forecast
Issued by NWS Mt. Holly, NJ

Home | Current Version | Previous Version | Text Only | Print | Product List | Glossary On
Versions: 1 2 3 4 5 6 7 8 9 10 11 12 13 14 15
000
FTUS41 KPHI 212323
TAFACY
TAF
KACY 212323Z 2200/2224 21006KT P6SM SCT250
     FM220700 VRB03KT P6SM SCT150
     FM221600 22007KT P6SM SCT100
     FM221800 17009KT P6SM SCT150
     FM222100 15009KT P6SM BKN050 PROB30 2223/2224 4SM -TSRA
      OVC025CB=

USA.gov is the U.S. government's official web portal to all federal, state and local government web resources and services.